Time;durP1;ratioP1;P1;durP2;ratioP2;P2;SDS_P1;SDS_P2;PMS_P1;PMS_P2;Temp;Humidity;BMP_temperature;BMP_pressure;BME280_temperature;BME280_humidity;BME280_pressure;Samples;Min_cycle;Max_cycle;Signal;HPM_P1;HPM_P2
2023/06/10 00:01:49;;;;;;;5.10;4.63;;;13.30;99.90;;;;;;8272468;28;20214;-65
2023/06/10 00:05:50;;;;;;;7.00;5.60;;;13.20;99.90;;;;;;8271304;28;20235;-66
2023/06/10 00:09:59;;;;;;;7.40;5.83;;;13.10;99.90;;;;;;8252713;28;20195;-64
2023/06/10 00:14:00;;;;;;;7.43;6.63;;;13.10;99.90;;;;;;8273555;28;20210;-64
2023/06/10 00:18:03;;;;;;;7.07;6.37;;;13.00;99.90;;;;;;8289110;28;20237;-65
2023/06/10 00:22:08;;;;;;;8.17;7.47;;;13.00;99.90;;;;;;8261217;28;20200;-65
2023/06/10 00:26:09;;;;;;;7.00;6.30;;;12.90;99.90;;;;;;8260382;28;20205;-65
2023/06/10 00:30:11;;;;;;;6.47;5.77;;;12.80;99.90;;;;;;8258501;28;20183;-66
2023/06/10 00:34:13;;;;;;;6.80;6.20;;;12.70;99.90;;;;;;8254004;28;20223;-64
2023/06/10 00:38:14;;;;;;;6.27;5.77;;;12.70;99.90;;;;;;8269551;28;20277;-66
2023/06/10 00:42:23;;;;;;;6.80;6.10;;;12.60;99.90;;;;;;8251814;28;20272;-66
2023/06/10 00:46:32;;;;;;;7.50;6.80;;;12.60;99.90;;;;;;8252589;28;20216;-65
2023/06/10 00:50:34;;;;;;;7.47;6.77;;;12.60;99.90;;;;;;8260369;28;20195;-66
2023/06/10 00:54:35;;;;;;;7.47;6.67;;;12.60;99.90;;;;;;8287517;28;20190;-66
2023/06/10 00:58:40;;;;;;;7.47;6.47;;;12.50;99.90;;;;;;8267830;28;20245;-65
2023/06/10 01:02:41;;;;;;;7.27;6.43;;;12.50;99.90;;;;;;8257920;28;20228;-70
2023/06/10 01:06:52;;;;;;;7.40;6.40;;;12.40;99.90;;;;;;8255941;28;20230;-66
2023/06/10 01:10:58;;;;;;;7.70;6.90;;;12.40;99.90;;;;;;8285781;28;20205;-65
2023/06/10 01:15:04;;;;;;;6.80;6.10;;;12.30;99.90;;;;;;8257983;28;20193;-68
2023/06/10 01:19:06;;;;;;;8.50;7.53;;;12.30;99.90;;;;;;8257856;28;20194;-66
2023/06/10 01:23:07;;;;;;;8.47;7.57;;;12.30;99.90;;;;;;8257951;28;20248;-65
2023/06/10 01:27:13;;;;;;;9.27;8.20;;;12.20;99.90;;;;;;8257258;28;20218;-66
2023/06/10 01:31:34;;;;;;;7.97;7.17;;;12.20;99.90;;;;;;8271299;28;20256;-66
2023/06/10 01:35:38;;;;;;;7.17;6.47;;;12.20;99.90;;;;;;8269999;28;20187;-65
2023/06/10 01:39:40;;;;;;;7.17;6.47;;;12.20;99.90;;;;;;8268764;28;20187;-66
2023/06/10 01:43:43;;;;;;;8.57;6.80;;;12.10;99.90;;;;;;8256951;28;20199;-65
2023/06/10 01:47:52;;;;;;;8.00;7.20;;;12.00;99.90;;;;;;8252931;28;20225;-65
2023/06/10 01:51:52;;;;;;;7.83;6.87;;;12.00;99.90;;;;;;8261560;28;20182;-66
2023/06/10 01:55:53;;;;;;;8.60;7.47;;;12.00;99.90;;;;;;8287202;28;20243;-65
2023/06/10 01:59:57;;;;;;;8.50;7.60;;;12.00;99.90;;;;;;8256115;28;20244;-65
2023/06/10 02:03:58;;;;;;;7.83;7.07;;;12.00;99.90;;;;;;8269076;28;20233;-64
2023/06/10 02:08:00;;;;;;;9.43;8.37;;;12.00;99.90;;;;;;8254541;28;20211;-65
2023/06/10 02:12:06;;;;;;;9.27;7.67;;;11.90;99.90;;;;;;8258607;28;20187;-65
2023/06/10 02:16:12;;;;;;;7.67;6.97;;;12.00;99.90;;;;;;8255911;28;20187;-66
2023/06/10 02:20:16;;;;;;;7.47;6.77;;;11.90;99.90;;;;;;8268643;28;20189;-66
2023/06/10 02:24:17;;;;;;;8.70;7.80;;;11.90;99.90;;;;;;8252016;28;20191;-66
2023/06/10 02:28:18;;;;;;;8.23;7.43;;;11.80;99.90;;;;;;8267312;28;20250;-65
2023/06/10 02:32:19;;;;;;;8.53;7.67;;;11.70;99.90;;;;;;8282306;28;20186;-66
2023/06/10 02:36:21;;;;;;;9.10;8.20;;;11.70;99.90;;;;;;8252445;28;20251;-66
2023/06/10 02:40:22;;;;;;;8.93;8.03;;;11.70;99.90;;;;;;8254190;28;20185;-66
2023/06/10 02:44:23;;;;;;;9.70;8.70;;;11.70;99.90;;;;;;8252228;28;20203;-65
2023/06/10 02:48:25;;;;;;;7.73;7.03;;;11.70;99.90;;;;;;8251834;28;20211;-66
2023/06/10 02:52:25;;;;;;;8.60;6.80;;;11.70;99.90;;;;;;8265012;28;20199;-66
2023/06/10 02:56:26;;;;;;;7.67;6.93;;;11.70;99.90;;;;;;8251599;28;20195;-65
2023/06/10 03:00:28;;;;;;;8.50;7.60;;;11.60;99.90;;;;;;8252609;28;20235;-69
2023/06/10 03:04:30;;;;;;;8.07;6.97;;;11.70;99.90;;;;;;8262346;28;20227;-68
2023/06/10 03:08:34;;;;;;;8.50;7.70;;;11.80;99.90;;;;;;8249009;28;20213;-69
2023/06/10 03:12:35;;;;;;;8.60;7.70;;;11.90;99.90;;;;;;8259692;28;20183;-68
2023/06/10 03:16:40;;;;;;;8.63;7.70;;;12.20;99.90;;;;;;8264915;28;20193;-67
2023/06/10 03:20:41;;;;;;;9.57;8.57;;;12.60;99.90;;;;;;8276072;28;20194;-66
2023/06/10 03:24:43;;;;;;;7.87;7.07;;;13.00;99.90;;;;;;8278352;28;20275;-67
2023/06/10 03:28:44;;;;;;;9.20;8.17;;;13.60;99.90;;;;;;8277784;28;20207;-66
2023/06/10 03:32:45;;;;;;;7.10;6.50;;;14.20;99.90;;;;;;8277426;28;20187;-66
2023/06/10 03:36:46;;;;;;;7.10;6.47;;;15.00;99.90;;;;;;8281121;28;20217;-66
2023/06/10 03:40:47;;;;;;;7.93;6.30;;;15.90;99.90;;;;;;8277190;28;20249;-67
2023/06/10 03:44:48;;;;;;;7.87;7.07;;;16.80;99.90;;;;;;8275952;28;20278;-65
2023/06/10 03:48:49;;;;;;;8.50;6.90;;;17.50;99.90;;;;;;8261783;28;20215;-66
2023/06/10 03:52:50;;;;;;;7.40;6.70;;;18.20;99.90;;;;;;8275994;28;20198;-66
2023/06/10 03:56:51;;;;;;;9.63;8.73;;;18.50;99.90;;;;;;8278811;28;20191;-67
2023/06/10 04:00:53;;;;;;;7.33;6.73;;;18.80;2.40;;;;;;8272293;28;20244;-67
2023/06/10 04:04:54;;;;;;;7.27;6.50;;;19.10;99.90;;;;;;8277334;28;20224;-67
2023/06/10 04:08:56;;;;;;;7.33;6.20;;;19.50;99.90;;;;;;8260154;28;20207;-67
2023/06/10 04:12:57;;;;;;;7.03;6.43;;;19.80;99.90;;;;;;8265987;28;20187;-66
2023/06/10 04:16:59;;;;;;;8.07;7.30;;;19.80;99.90;;;;;;8261810;28;20207;-67
2023/06/10 04:21:00;;;;;;;9.07;8.27;;;19.80;97.80;;;;;;8263871;28;20282;-67
2023/06/10 04:25:01;;;;;;;9.43;8.43;;;19.80;87.80;;;;;;8260538;28;20187;-68
2023/06/10 04:29:02;;;;;;;9.47;8.67;;;19.60;82.30;;;;;;8275230;28;20218;-67
2023/06/10 04:33:03;;;;;;;10.17;7.70;;;19.50;94.20;;;;;;8286003;28;20179;-69
2023/06/10 04:37:05;;;;;;;10.17;8.90;;;19.80;90.40;;;;;;8273047;28;20200;-67
2023/06/10 04:41:05;;;;;;;10.57;9.50;;;20.50;72.20;;;;;;8271745;28;20194;-67
2023/06/10 04:45:07;;;;;;;12.43;10.87;;;20.90;34.00;;;;;;8273822;28;20261;-67
2023/06/10 04:49:17;;;;;;;11.40;10.43;;;21.10;18.20;;;;;;8256785;28;20211;-67
2023/06/10 04:53:18;;;;;;;12.17;10.97;;;21.20;6.70;;;;;;8285457;28;20199;-66
2023/06/10 04:57:20;;;;;;;13.63;11.13;;;21.50;4.50;;;;;;8284918;28;20254;-65
2023/06/10 05:01:23;;;;;;;12.87;10.13;;;21.60;1.00;;;;;;8283384;28;20198;-67
2023/06/10 05:05:25;;;;;;;11.30;10.20;;;21.60;1.00;;;;;;8270619;28;20234;-66
2023/06/10 05:09:26;;;;;;;11.73;10.53;;;21.40;8.70;;;;;;8253652;28;20210;-68
2023/06/10 05:13:27;;;;;;;11.83;10.63;;;20.90;62.80;;;;;;8255018;28;20210;-72
2023/06/10 05:17:28;;;;;;;12.00;10.90;;;20.40;99.90;;;;;;8258584;28;20223;-72
2023/06/10 05:21:29;;;;;;;12.13;10.53;;;19.80;99.90;;;;;;8267311;28;20191;-72
2023/06/10 05:25:33;;;;;;;13.70;12.47;;;19.40;99.90;;;;;;8258939;28;20190;-72
2023/06/10 05:29:34;;;;;;;12.27;11.13;;;18.90;1.00;;;;;;8271181;28;20285;-73
2023/06/10 05:33:36;;;;;;;12.30;11.23;;;18.80;1.00;;;;;;8268237;28;20204;-73
2023/06/10 05:37:37;;;;;;;11.73;10.63;;;18.80;1.00;;;;;;8270070;28;20187;-72
2023/06/10 05:41:38;;;;;;;14.07;12.77;;;18.80;1.00;;;;;;8252942;28;20186;-71
2023/06/10 05:45:40;;;;;;;12.23;11.13;;;18.70;99.40;;;;;;8269035;28;20195;-72
2023/06/10 05:49:41;;;;;;;11.73;10.63;;;18.70;73.50;;;;;;8286589;28;20210;-72
2023/06/10 05:53:42;;;;;;;12.23;11.13;;;18.80;4.30;;;;;;8288625;28;20206;-72
2023/06/10 05:57:43;;;;;;;13.50;12.07;;;18.80;1.00;;;;;;8255496;28;20257;-72
2023/06/10 06:01:44;;;;;;;11.40;10.40;;;18.80;1.00;;;;;;8260916;28;20210;-71
2023/06/10 06:05:48;;;;;;;13.23;11.93;;;18.80;1.00;;;;;;8258046;28;20225;-72
2023/06/10 06:09:49;;;;;;;14.83;13.23;;;18.90;1.00;;;;;;8258926;28;20303;-73
2023/06/10 06:13:50;;;;;;;14.30;12.90;;;19.10;1.00;;;;;;8271605;28;20256;-72
2023/06/10 06:17:55;;;;;;;13.13;11.33;;;19.30;1.00;;;;;;8251306;28;20308;-72
2023/06/10 06:21:56;;;;;;;13.30;11.67;;;19.50;1.00;;;;;;8258924;28;20192;-72
2023/06/10 06:25:57;;;;;;;13.17;11.93;;;19.90;99.90;;;;;;8272533;28;20194;-73
2023/06/10 06:30:01;;;;;;;12.87;11.57;;;20.10;99.90;;;;;;8254512;28;20215;-71
2023/06/10 06:34:02;;;;;;;12.03;10.83;;;20.30;99.90;;;;;;8270659;28;20201;-72
2023/06/10 06:38:04;;;;;;;10.77;9.53;;;20.50;99.90;;;;;;8253350;28;20278;-72
2023/06/10 06:42:05;;;;;;;12.40;10.53;;;20.80;99.90;;;;;;8259902;28;20184;-72
2023/06/10 06:46:06;;;;;;;17.67;15.87;;;21.10;99.90;;;;;;8250155;28;20285;-72
2023/06/10 06:50:07;;;;;;;14.07;12.50;;;21.40;99.90;;;;;;8267763;28;20194;-72
2023/06/10 06:54:11;;;;;;;15.47;13.20;;;21.60;71.40;;;;;;8255801;28;20207;-72
2023/06/10 06:58:13;;;;;;;14.70;13.23;;;21.90;40.20;;;;;;8281033;28;20192;-70
2023/06/10 07:02:14;;;;;;;13.40;11.53;;;22.20;15.80;;;;;;8250780;28;20191;-71
2023/06/10 07:06:15;;;;;;;17.03;13.40;;;22.40;1.00;;;;;;8263147;28;20215;-71
2023/06/10 07:10:17;;;;;;;17.83;15.53;;;22.40;6.80;;;;;;8255878;28;20282;-72
2023/06/10 07:14:18;;;;;;;13.70;12.13;;;22.40;17.40;;;;;;8256114;28;20246;-70
2023/06/10 07:18:25;;;;;;;13.13;11.93;;;22.40;1.00;;;;;;8255137;28;20187;-71
2023/06/10 07:22:26;;;;;;;14.17;12.77;;;22.40;1.90;;;;;;8265761;28;20264;-68
2023/06/10 07:26:28;;;;;;;13.30;12.00;;;22.40;1.00;;;;;;8258576;28;20251;-68
2023/06/10 07:30:29;;;;;;;12.03;11.03;;;22.40;1.00;;;;;;8254330;28;20184;-69
2023/06/10 07:34:30;;;;;;;14.10;12.70;;;22.40;2.20;;;;;;8250857;28;20267;-72
2023/06/10 07:38:32;;;;;;;13.13;11.90;;;22.50;4.00;;;;;;8250751;28;20207;-72
2023/06/10 07:42:36;;;;;;;12.20;11.00;;;22.50;13.00;;;;;;8263498;28;20202;-70
2023/06/10 07:46:39;;;;;;;13.07;11.57;;;22.60;1.20;;;;;;8251582;28;20333;-70
2023/06/10 07:50:42;;;;;;;12.73;11.53;;;22.50;12.30;;;;;;8257593;28;20184;-70
2023/06/10 07:54:43;;;;;;;15.57;12.63;;;22.60;30.00;;;;;;8252968;28;20206;-73
2023/06/10 07:58:44;;;;;;;14.70;13.23;;;22.60;40.10;;;;;;8253709;28;20187;-71
2023/06/10 08:02:45;;;;;;;13.67;11.67;;;22.60;54.00;;;;;;8273318;28;20246;-71
2023/06/10 08:07:19;;;;;;;13.10;11.70;;;22.90;53.70;;;;;;8263959;28;20312;-67
2023/06/10 08:11:30;;;;;;;12.40;11.23;;;22.80;1.00;;;;;;8254002;28;20194;-70
2023/06/10 08:15:37;;;;;;;12.57;11.40;;;22.70;1.00;;;;;;8259006;28;20195;-72
2023/06/10 08:19:38;;;;;;;12.97;11.67;;;22.80;1.00;;;;;;8269255;28;20287;-70
2023/06/10 08:23:39;;;;;;;12.90;11.57;;;22.90;1.00;;;;;;8273962;28;20195;-70
2023/06/10 08:27:40;;;;;;;13.83;12.53;;;22.90;1.00;;;;;;8262498;28;20258;-72
2023/06/10 08:31:44;;;;;;;16.03;12.87;;;23.10;1.00;;;;;;8273845;28;20195;-70
2023/06/10 08:35:51;;;;;;;18.07;12.37;;;23.50;1.00;;;;;;8261983;28;20209;-71
2023/06/10 08:39:52;;;;;;;14.23;12.83;;;23.70;1.00;;;;;;8268395;28;20191;-72
2023/06/10 08:44:29;;;;;;;14.80;11.80;;;23.90;1.00;;;;;;8278689;28;20351;-70
2023/06/10 08:48:37;;;;;;;14.33;12.90;;;23.90;1.00;;;;;;8266605;28;20231;-71
2023/06/10 08:52:43;;;;;;;13.87;12.03;;;24.00;1.00;;;;;;8268667;28;20281;-70
2023/06/10 08:56:48;;;;;;;12.33;11.10;;;24.00;1.00;;;;;;8272428;28;20234;-72
2023/06/10 09:00:50;;;;;;;13.23;12.03;;;23.80;1.00;;;;;;8270266;28;20187;-73
2023/06/10 09:04:51;;;;;;;11.80;10.63;;;23.70;1.00;;;;;;8256015;28;20329;-67
2023/06/10 09:08:52;;;;;;;14.93;12.60;;;23.50;1.00;;;;;;8270452;28;20243;-71
2023/06/10 09:12:55;;;;;;;13.70;12.43;;;23.60;1.00;;;;;;8271025;28;20206;-69
2023/06/10 09:16:57;;;;;;;12.90;11.70;;;23.60;1.00;;;;;;8268211;28;20194;-68
2023/06/10 09:20:58;;;;;;;12.63;11.43;;;23.60;1.00;;;;;;8254751;28;20192;-71
2023/06/10 09:25:10;;;;;;;12.97;11.63;;;23.90;1.00;;;;;;8253485;28;20191;-71
2023/06/10 09:29:14;;;;;;;13.20;11.67;;;24.20;1.00;;;;;;8269380;28;20215;-68
2023/06/10 09:33:16;;;;;;;13.33;11.93;;;24.30;1.00;;;;;;8270241;28;20223;-70
2023/06/10 09:37:29;;;;;;;11.53;10.33;;;24.30;1.00;;;;;;8268608;28;20222;-68
2023/06/10 09:41:40;;;;;;;15.63;12.73;;;24.50;1.00;;;;;;8282177;28;20207;-71
2023/06/10 09:45:43;;;;;;;13.33;12.00;;;24.50;1.00;;;;;;8283390;28;20199;-71
2023/06/10 09:49:44;;;;;;;12.17;10.87;;;24.40;1.00;;;;;;8266327;28;20228;-70
2023/06/10 09:53:52;;;;;;;11.77;10.67;;;24.40;1.00;;;;;;8251703;28;20203;-69
2023/06/10 09:57:54;;;;;;;12.30;10.97;;;24.60;1.00;;;;;;8251443;28;20191;-72
2023/06/10 10:01:56;;;;;;;14.50;11.40;;;24.80;1.00;;;;;;8253124;28;20201;-71
2023/06/10 10:06:00;;;;;;;16.93;10.87;;;24.90;1.00;;;;;;8280501;28;20243;-71
2023/06/10 10:10:02;;;;;;;11.90;10.27;;;25.00;1.00;;;;;;8251497;28;20215;-72
2023/06/10 10:14:05;;;;;;;11.63;10.43;;;24.90;1.00;;;;;;8255507;28;20187;-72
2023/06/10 10:18:10;;;;;;;10.83;8.73;;;24.90;1.00;;;;;;8258684;28;20278;-72
2023/06/10 10:22:28;;;;;;;10.60;9.53;;;24.80;1.00;;;;;;8265373;28;20208;-72
2023/06/10 10:26:31;;;;;;;10.43;9.40;;;24.80;1.00;;;;;;8269089;28;20248;-71
2023/06/10 10:30:39;;;;;;;9.57;8.63;;;24.70;1.00;;;;;;8282686;28;20188;-72
2023/06/10 10:34:53;;;;;;;10.83;9.57;;;24.80;1.00;;;;;;8252301;28;20226;-72
2023/06/10 10:39:01;;;;;;;10.27;9.17;;;25.00;1.00;;;;;;8263499;28;20195;-73
2023/06/10 10:43:03;;;;;;;9.73;8.43;;;25.30;1.00;;;;;;8253434;28;20294;-73
2023/06/10 10:47:07;;;;;;;9.73;8.73;;;25.70;1.00;;;;;;8254845;28;20211;-72
2023/06/10 10:51:12;;;;;;;10.05;9.15;;;26.00;1.00;;;;;;8282338;28;20187;-71
2023/06/10 10:55:13;;;;;;;9.27;7.70;;;26.30;1.00;;;;;;8254233;28;20259;-72
2023/06/10 10:59:17;;;;;;;9.80;8.00;;;26.60;1.00;;;;;;8252149;28;20270;-72
2023/06/10 11:03:19;;;;;;;8.75;7.95;;;26.60;1.00;;;;;;8268749;28;20234;-72
2023/06/10 11:07:21;;;;;;;9.63;7.07;;;26.50;1.00;;;;;;8268823;28;20223;-70
2023/06/10 11:11:26;;;;;;;8.90;8.00;;;26.50;1.00;;;;;;8267949;28;20268;-72
2023/06/10 11:15:29;;;;;;;8.93;7.50;;;26.60;1.00;;;;;;8248658;28;20211;-70
2023/06/10 11:19:46;;;;;;;7.90;6.60;;;26.90;1.00;;;;;;8247089;28;20195;-68
2023/06/10 11:23:49;;;;;;;7.47;6.72;;;27.20;1.00;;;;;;8267147;28;20184;-68
2023/06/10 11:27:52;;;;;;;8.45;6.43;;;27.30;1.00;;;;;;8265485;28;20302;-71
2023/06/10 11:31:55;;;;;;;6.68;6.07;;;27.30;1.00;;;;;;8267403;28;20266;-69
2023/06/10 11:35:58;;;;;;;7.40;6.07;;;27.20;1.00;;;;;;8260203;28;20223;-68
2023/06/10 11:40:00;;;;;;;6.70;5.93;;;27.40;1.00;;;;;;8260661;28;20314;-72
2023/06/10 11:44:12;;;;;;;6.07;5.57;;;27.50;1.00;;;;;;8263460;28;20187;-70
2023/06/10 11:48:13;;;;;;;6.15;5.38;;;27.60;1.00;;;;;;8274957;28;20211;-70
2023/06/10 11:52:14;;;;;;;7.70;5.35;;;27.60;1.00;;;;;;8258749;28;20184;-70
2023/06/10 11:56:26;;;;;;;7.30;5.10;;;27.70;1.00;;;;;;8274039;28;20183;-72
2023/06/10 12:00:28;;;;;;;5.20;4.00;;;28.00;1.00;;;;;;8275308;28;20184;-69
2023/06/10 12:04:29;;;;;;;6.90;4.22;;;28.40;1.00;;;;;;8262138;28;20222;-72
2023/06/10 12:08:30;;;;;;;6.45;4.07;;;28.50;1.00;;;;;;8273046;28;20299;-75
2023/06/10 12:12:34;;;;;;;5.13;4.55;;;28.50;99.90;;;;;;8274669;28;20192;-74
2023/06/10 12:16:35;;;;;;;8.57;7.18;;;28.50;99.90;;;;;;8269055;28;20188;-73
2023/06/10 12:20:36;;;;;;;5.32;4.63;;;28.40;99.90;;;;;;8272173;28;20188;-70
2023/06/10 12:25:02;;;;;;;6.00;3.65;;;28.40;99.90;;;;;;8257228;28;20195;-70
2023/06/10 12:29:32;;;;;;;4.10;3.58;;;28.20;99.90;;;;;;8268595;28;20229;-73
2023/06/10 12:33:33;;;;;;;8.98;4.13;;;28.30;99.90;;;;;;8269431;28;20204;-72
2023/06/10 12:37:36;;;;;;;6.93;3.90;;;28.40;99.90;;;;;;8290961;28;20187;-71
2023/06/10 12:41:38;;;;;;;6.57;4.28;;;28.50;99.90;;;;;;8259370;28;20303;-69
2023/06/10 12:45:51;;;;;;;6.25;4.38;;;28.60;99.90;;;;;;8271080;28;20226;-69
2023/06/10 12:49:52;;;;;;;4.40;4.00;;;28.50;99.90;;;;;;8265371;28;20211;-68
2023/06/10 12:53:53;;;;;;;6.30;3.90;;;28.40;99.90;;;;;;8270094;28;20271;-69
2023/06/10 12:57:55;;;;;;;4.47;3.50;;;28.40;99.90;;;;;;8257894;28;20191;-72
2023/06/10 13:01:55;;;;;;;6.57;4.10;;;28.30;99.90;;;;;;8258922;28;20195;-71
2023/06/10 13:05:56;;;;;;;8.70;4.63;;;28.10;99.90;;;;;;8264535;28;20335;-72
2023/06/10 13:09:57;;;;;;;5.13;4.25;;;27.80;99.90;;;;;;8253548;28;20222;-69
2023/06/10 13:13:59;;;;;;;6.45;4.88;;;27.60;99.90;;;;;;8260439;28;20186;-73
2023/06/10 13:18:00;;;;;;;8.10;4.55;;;27.60;99.90;;;;;;8285301;28;20187;-72
2023/06/10 13:22:01;;;;;;;13.32;4.88;;;27.80;99.90;;;;;;8261429;28;20188;-69
2023/06/10 13:26:03;;;;;;;5.93;4.35;;;28.10;99.90;;;;;;8255128;28;20194;-73
2023/06/10 13:30:05;;;;;;;6.03;4.28;;;28.10;99.90;;;;;;8285014;28;20210;-74
2023/06/10 13:34:06;;;;;;;5.25;3.88;;;28.10;99.90;;;;;;8267880;28;20219;-69
2023/06/10 13:38:07;;;;;;;8.05;3.97;;;28.20;99.90;;;;;;8257070;28;20195;-71
2023/06/10 13:42:08;;;;;;;7.05;4.13;;;28.10;99.90;;;;;;8255532;28;20342;-76
2023/06/10 13:46:10;;;;;;;5.93;3.90;;;28.30;99.90;;;;;;8260380;28;20203;-71
2023/06/10 13:50:11;;;;;;;4.95;3.70;;;28.60;99.90;;;;;;8256800;28;20211;-69
2023/06/10 13:54:14;;;;;;;4.82;3.38;;;28.70;99.90;;;;;;8274523;28;20214;-70
2023/06/10 13:58:15;;;;;;;6.18;4.10;;;28.80;99.90;;;;;;8256771;28;20183;-71
2023/06/10 14:02:16;;;;;;;6.75;3.92;;;28.90;99.90;;;;;;8273996;28;20194;-70
2023/06/10 14:06:18;;;;;;;5.93;3.97;;;28.80;99.90;;;;;;8253239;28;20258;-72
2023/06/10 14:10:19;;;;;;;4.15;3.63;;;28.70;99.90;;;;;;8257895;28;20219;-69
2023/06/10 14:14:20;;;;;;;6.53;3.92;;;28.60;99.90;;;;;;8271310;28;20189;-70
2023/06/10 14:18:21;;;;;;;3.88;3.42;;;28.50;99.90;;;;;;8266726;28;20187;-73
2023/06/10 14:22:22;;;;;;;5.50;3.40;;;28.60;99.90;;;;;;8253842;28;20187;-67
2023/06/10 14:26:23;;;;;;;4.05;3.65;;;28.90;99.90;;;;;;8257497;28;20237;-71
2023/06/10 14:30:24;;;;;;;5.53;3.88;;;28.90;99.90;;;;;;8270343;28;20191;-72
2023/06/10 14:34:28;;;;;;;3.88;3.42;;;28.40;99.90;;;;;;8268777;28;20246;-72
2023/06/10 14:38:31;;;;;;;5.97;3.60;;;28.20;99.90;;;;;;8253430;28;20184;-71
2023/06/10 14:42:33;;;;;;;6.28;4.00;;;28.30;99.90;;;;;;8281446;28;20191;-71
2023/06/10 14:46:34;;;;;;;7.13;3.60;;;28.30;99.90;;;;;;8250668;28;20187;-67
2023/06/10 14:50:35;;;;;;;4.03;3.40;;;28.20;99.90;;;;;;8268452;28;20183;-69
2023/06/10 14:54:36;;;;;;;6.00;3.20;;;28.20;99.90;;;;;;8266812;28;20192;-70
2023/06/10 14:58:37;;;;;;;8.15;6.15;;;28.00;99.90;;;;;;8253991;28;20306;-72
2023/06/10 15:02:44;;;;;;;7.00;4.00;;;27.90;99.90;;;;;;8256076;28;20272;-70
2023/06/10 15:06:48;;;;;;;5.65;4.10;;;27.70;99.90;;;;;;8248625;28;20271;-73
2023/06/10 15:10:54;;;;;;;7.50;3.58;;;27.80;99.90;;;;;;8271312;28;20241;-71
2023/06/10 15:14:55;;;;;;;7.70;3.78;;;27.80;99.90;;;;;;8268556;28;20284;-70
2023/06/10 15:18:56;;;;;;;5.00;3.60;;;27.90;99.90;;;;;;8269218;28;20285;-72
2023/06/10 15:22:57;;;;;;;3.58;2.83;;;27.80;99.90;;;;;;8254290;28;20195;-70
2023/06/10 15:26:58;;;;;;;5.45;3.33;;;27.80;99.90;;;;;;8257095;28;20214;-73
2023/06/10 15:31:02;;;;;;;6.03;3.83;;;27.70;99.90;;;;;;8265529;28;20274;-71
2023/06/10 15:35:03;;;;;;;6.00;3.50;;;27.70;99.90;;;;;;8266770;28;20207;-68
2023/06/10 15:39:06;;;;;;;5.53;3.10;;;27.60;99.90;;;;;;8254459;28;20187;-70
2023/06/10 15:43:10;;;;;;;5.63;3.40;;;27.60;99.90;;;;;;8266618;28;20187;-70
2023/06/10 15:47:11;;;;;;;7.28;3.95;;;27.70;99.90;;;;;;8269607;28;20226;-71
2023/06/10 15:51:12;;;;;;;5.00;3.33;;;27.80;99.90;;;;;;8268019;28;20210;-71
2023/06/10 15:55:13;;;;;;;4.72;3.75;;;27.80;99.90;;;;;;8257808;28;20271;-68
2023/06/10 15:59:14;;;;;;;5.97;4.10;;;27.60;99.90;;;;;;8266528;28;20187;-71
2023/06/10 16:03:15;;;;;;;8.88;3.78;;;27.50;99.90;;;;;;8265749;28;20305;-71
2023/06/10 16:07:16;;;;;;;6.05;3.97;;;27.50;99.90;;;;;;8267843;28;20246;-69
2023/06/10 16:11:21;;;;;;;3.50;3.20;;;27.50;99.90;;;;;;8255499;28;20187;-68
2023/06/10 16:15:22;;;;;;;6.88;3.80;;;27.50;99.90;;;;;;8257219;28;20234;-71
2023/06/10 16:19:24;;;;;;;6.05;3.80;;;27.50;99.90;;;;;;8254264;28;20282;-72
2023/06/10 16:23:25;;;;;;;7.32;4.28;;;27.50;99.90;;;;;;8258014;28;20187;-71
2023/06/10 16:27:26;;;;;;;6.43;3.85;;;27.30;99.90;;;;;;8262907;28;20211;-70
2023/06/10 16:31:27;;;;;;;7.07;4.07;;;27.20;99.90;;;;;;8260667;28;20188;-70
2023/06/10 16:35:28;;;;;;;6.65;3.80;;;27.10;99.90;;;;;;8275590;28;20280;-69
2023/06/10 16:39:29;;;;;;;8.90;4.63;;;27.00;99.90;;;;;;8253125;28;20222;-71
2023/06/10 16:43:31;;;;;;;6.28;4.28;;;27.10;99.90;;;;;;8274043;28;20216;-70
2023/06/10 16:47:32;;;;;;;6.78;3.28;;;27.10;99.90;;;;;;8252951;28;20221;-70
2023/06/10 16:51:33;;;;;;;7.00;3.88;;;27.10;99.90;;;;;;8257726;28;20226;-68
2023/06/10 16:55:34;;;;;;;5.55;3.55;;;27.00;99.90;;;;;;8274770;28;20175;-69
2023/06/10 16:59:35;;;;;;;7.97;3.75;;;26.90;99.90;;;;;;8254320;28;20211;-71
2023/06/10 17:03:39;;;;;;;8.38;3.90;;;26.80;99.90;;;;;;8263029;28;20211;-71
2023/06/10 17:07:40;;;;;;;6.20;3.25;;;26.70;99.90;;;;;;8257594;28;20218;-70
2023/06/10 17:11:41;;;;;;;5.50;3.70;;;26.70;99.90;;;;;;8271109;28;20262;-69
2023/06/10 17:15:41;;;;;;;5.75;3.75;;;26.90;99.90;;;;;;8256953;28;20219;-68
2023/06/10 17:19:43;;;;;;;9.07;3.33;;;27.40;99.90;;;;;;8270271;28;20187;-70
2023/06/10 17:23:44;;;;;;;5.07;3.70;;;28.00;99.90;;;;;;8256781;28;20223;-73
2023/06/10 17:27:45;;;;;;;4.57;3.38;;;28.40;99.90;;;;;;8257622;28;20215;-70
2023/06/10 17:31:46;;;;;;;6.35;3.33;;;28.80;99.90;;;;;;8258803;28;20184;-73
2023/06/10 17:35:48;;;;;;;19.15;12.77;;;29.10;99.90;;;;;;8270722;28;20287;-69
2023/06/10 17:39:50;;;;;;;6.80;3.53;;;29.10;99.90;;;;;;8251588;28;20207;-71
2023/06/10 17:43:51;;;;;;;6.97;3.63;;;29.10;99.90;;;;;;8256525;28;20195;-68
2023/06/10 17:47:52;;;;;;;3.65;3.08;;;29.20;99.90;;;;;;8268795;28;20297;-71
2023/06/10 17:51:53;;;;;;;7.82;3.83;;;29.20;99.90;;;;;;8269197;28;20238;-71
2023/06/10 17:55:54;;;;;;;9.07;3.10;;;29.20;99.90;;;;;;8268673;28;20191;-70
2023/06/10 17:59:55;;;;;;;5.65;3.05;;;29.20;99.90;;;;;;8268436;28;20191;-71
2023/06/10 18:03:56;;;;;;;6.57;2.88;;;29.30;99.90;;;;;;8283451;28;20204;-71
2023/06/10 18:07:59;;;;;;;5.95;3.22;;;29.30;99.90;;;;;;8256452;28;20307;-71
2023/06/10 18:12:00;;;;;;;5.97;3.25;;;29.10;99.90;;;;;;8256846;28;20179;-72
2023/06/10 18:16:01;;;;;;;3.15;2.80;;;28.90;99.90;;;;;;8268298;28;20210;-71
2023/06/10 18:20:06;;;;;;;8.98;3.28;;;28.70;99.90;;;;;;8284774;28;20191;-72
2023/06/10 18:24:08;;;;;;;6.72;3.00;;;28.40;99.90;;;;;;8291311;28;20215;-73
2023/06/10 18:28:09;;;;;;;4.13;2.55;;;28.10;99.90;;;;;;8261038;28;20271;-73
2023/06/10 18:32:10;;;;;;;3.67;2.65;;;27.60;99.90;;;;;;8255148;28;20231;-72
2023/06/10 18:36:12;;;;;;;5.15;3.75;;;27.30;99.90;;;;;;8274895;28;20191;-72
2023/06/10 18:40:17;;;;;;;4.80;2.83;;;27.00;99.90;;;;;;8254178;28;20184;-68
2023/06/10 18:44:46;;;;;;;5.93;2.70;;;26.50;99.90;;;;;;8272322;28;20190;-70
2023/06/10 18:48:49;;;;;;;3.40;2.80;;;26.00;99.90;;;;;;8258779;28;20258;-72
2023/06/10 18:52:50;;;;;;;5.53;3.40;;;25.40;99.90;;;;;;8255180;28;20330;-74
2023/06/10 18:56:51;;;;;;;8.00;3.57;;;24.80;99.90;;;;;;8274381;28;20290;-68
2023/06/10 19:00:52;;;;;;;12.47;4.97;;;24.30;99.90;;;;;;8255983;28;20218;-68
2023/06/10 19:04:54;;;;;;;12.70;5.67;;;23.70;99.90;;;;;;8267528;28;20211;-70
2023/06/10 19:08:55;;;;;;;9.43;5.60;;;23.20;99.90;;;;;;8255488;28;20286;-68
2023/06/10 19:12:56;;;;;;;7.67;4.63;;;22.80;99.90;;;;;;8268804;28;20254;-69
2023/06/10 19:16:57;;;;;;;7.60;3.37;;;22.40;99.90;;;;;;8266620;28;20202;-71
2023/06/10 19:20:59;;;;;;;4.27;3.10;;;22.10;99.90;;;;;;8265089;28;20291;-71
2023/06/10 19:25:01;;;;;;;7.13;3.60;;;21.80;99.90;;;;;;8250588;28;20205;-69
2023/06/10 19:29:02;;;;;;;4.43;3.43;;;21.50;99.90;;;;;;8253865;28;20266;-69
2023/06/10 19:33:03;;;;;;;8.33;4.10;;;21.30;99.90;;;;;;8254262;28;20179;-69
2023/06/10 19:37:05;;;;;;;7.10;3.20;;;21.10;99.90;;;;;;8267955;28;20224;-65
2023/06/10 19:41:06;;;;;;;6.43;3.70;;;20.90;99.90;;;;;;8268251;28;20183;-65
2023/06/10 19:45:09;;;;;;;5.07;3.80;;;20.70;99.90;;;;;;8263863;28;20189;-65
2023/06/10 19:49:15;;;;;;;6.47;3.80;;;20.50;99.90;;;;;;8278332;28;20226;-66
2023/06/10 19:53:16;;;;;;;7.87;3.73;;;20.30;99.90;;;;;;8252490;28;20187;-65
2023/06/10 19:57:17;;;;;;;7.17;3.97;;;20.00;99.90;;;;;;8288550;28;20191;-66
2023/06/10 20:01:18;;;;;;;6.97;4.23;;;19.80;99.90;;;;;;8267996;28;20184;-66
2023/06/10 20:05:20;;;;;;;9.27;3.97;;;19.60;99.90;;;;;;8259405;28;20225;-66
2023/06/10 20:09:23;;;;;;;5.20;3.90;;;19.40;99.90;;;;;;8269410;28;20302;-65
2023/06/10 20:13:24;;;;;;;9.10;3.70;;;19.10;99.90;;;;;;8257996;28;20194;-66
2023/06/10 20:17:25;;;;;;;4.03;3.47;;;19.00;99.90;;;;;;8258733;28;20198;-64
2023/06/10 20:21:27;;;;;;;5.50;3.77;;;18.70;99.90;;;;;;8252853;28;20191;-66
2023/06/10 20:25:29;;;;;;;4.27;3.13;;;18.50;99.90;;;;;;8286913;28;20234;-65
2023/06/10 20:29:33;;;;;;;7.83;3.73;;;18.20;99.90;;;;;;8271556;28;20227;-66
2023/06/10 20:33:34;;;;;;;3.67;3.23;;;17.80;99.90;;;;;;8270264;28;20178;-66
2023/06/10 20:37:35;;;;;;;3.13;2.63;;;17.50;99.90;;;;;;8272931;28;20186;-65
2023/06/10 20:41:37;;;;;;;2.60;2.37;;;17.10;99.90;;;;;;8286628;28;20193;-66
2023/06/10 20:45:38;;;;;;;2.53;2.27;;;16.70;99.90;;;;;;8273865;28;20190;-66
2023/06/10 20:49:40;;;;;;;2.97;2.63;;;16.40;99.90;;;;;;8256396;28;20215;-65
2023/06/10 20:53:41;;;;;;;5.63;2.20;;;16.20;99.90;;;;;;8255651;28;20185;-67
2023/06/10 20:57:42;;;;;;;3.13;2.10;;;15.90;99.90;;;;;;8257779;28;20274;-65